Time;durP1;ratioP1;P1;durP2;ratioP2;P2;SDS_P1;SDS_P2;PMS_P1;PMS_P2;Temp;Humidity;BMP_temperature;BMP_pressure;BME280_temperature;BME280_humidity;BME280_pressure;Samples;Min_cycle;Max_cycle;Signal;HPM_P1;HPM_P2
2022/09/05 00:00:07;;;;;;;0.70;0.52;;;;;;;21.56;54.69;101606.88;5064024;28;20390;-63
2022/09/05 00:02:52;;;;;;;1.58;0.80;;;;;;;21.61;54.57;101604.88;5060933;28;20037;-63
2022/09/05 00:05:28;;;;;;;2.72;0.60;;;;;;;21.52;55.28;101608.09;5069640;28;20044;-63
2022/09/05 00:08:12;;;;;;;0.88;0.70;;;;;;;21.38;55.97;101597.25;5063849;28;20081;-63
2022/09/05 00:11:04;;;;;;;5.53;0.80;;;;;;;21.28;56.27;101603.59;5067352;28;20113;-63
2022/09/05 00:13:36;;;;;;;1.80;0.80;;;;;;;21.18;56.02;101599.75;5065040;28;20025;-63
2022/09/05 00:16:23;;;;;;;3.63;0.93;;;;;;;21.19;56.18;101595.06;5082517;28;20047;-63
2022/09/05 00:19:21;;;;;;;1.50;0.88;;;;;;;21.08;57.12;101597.88;5066579;28;20033;-63
2022/09/05 00:22:03;;;;;;;1.10;0.70;;;;;;;21.13;56.76;101591.19;5027758;28;20588;-63
2022/09/05 00:24:49;;;;;;;0.55;0.55;;;;;;;21.00;57.00;101590.84;5068533;28;20028;-63
2022/09/05 00:27:38;;;;;;;0.95;0.73;;;;;;;21.03;57.24;101594.78;5060440;28;20415;-63
2022/09/05 00:30:22;;;;;;;1.30;0.80;;;;;;;20.92;57.08;101597.59;5064650;28;20108;-63
2022/09/05 00:32:53;;;;;;;0.68;0.50;;;;;;;20.83;58.15;101591.00;5067392;28;20033;-63
2022/09/05 00:35:41;;;;;;;1.10;0.90;;;;;;;20.82;58.44;101592.97;5061060;28;20037;-63
2022/09/05 00:38:15;;;;;;;1.40;0.90;;;;;;;20.83;58.28;101594.50;5058015;28;20122;-63
2022/09/05 00:40:55;;;;;;;1.45;0.80;;;;;;;20.48;59.08;101600.19;5064672;28;20499;-63
2022/09/05 00:43:38;;;;;;;1.88;0.90;;;;;;;20.53;59.51;101599.78;5057371;28;20025;-63
2022/09/05 00:46:22;;;;;;;1.55;0.82;;;;;;;20.49;59.84;101597.06;5067144;28;20028;-64
2022/09/05 00:49:15;;;;;;;2.35;0.80;;;;;;;20.50;59.40;101603.28;5062639;28;20433;-63
2022/09/05 00:51:52;;;;;;;1.30;0.98;;;;;;;20.48;60.12;101613.88;5066595;28;20047;-63
2022/09/05 00:54:49;;;;;;;0.75;0.57;;;;;;;20.42;60.11;101608.03;5068072;28;20032;-63
2022/09/05 00:57:29;;;;;;;1.67;0.90;;;;;;;20.44;59.70;101607.66;5068616;28;20527;-63
2022/09/05 00:59:54;;;;;;;1.08;0.80;;;;;;;20.55;59.57;101622.84;5060473;28;20304;-63
2022/09/05 01:02:20;;;;;;;1.20;1.00;;;;;;;20.44;59.65;101610.38;5072242;28;20552;-63
2022/09/05 01:05:30;;;;;;;0.95;0.75;;;;;;;20.35;60.19;101626.44;5068347;28;20052;-63
2022/09/05 01:08:27;;;;;;;1.10;0.70;;;;;;;20.34;59.73;101616.69;5069381;28;20055;-63
2022/09/05 01:11:31;;;;;;;1.55;1.00;;;;;;;20.24;60.89;101629.22;5069617;28;20032;-63
2022/09/05 01:14:15;;;;;;;2.40;1.17;;;;;;;20.30;60.58;101621.38;5067103;28;20036;-63
2022/09/05 01:17:02;;;;;;;1.55;1.00;;;;;;;20.32;59.86;101619.03;5068356;28;20481;-63
2022/09/05 01:19:58;;;;;;;1.90;0.90;;;;;;;20.39;59.93;101619.00;5071816;28;20185;-63
2022/09/05 01:22:45;;;;;;;1.00;0.80;;;;;;;20.26;60.41;101620.63;5061540;28;20043;-64
2022/09/05 01:25:17;;;;;;;2.85;1.10;;;;;;;20.31;60.07;101614.72;5070071;28;20032;-63
2022/09/05 01:28:13;;;;;;;2.08;1.02;;;;;;;20.40;59.56;101621.31;5071205;28;20476;-63
2022/09/05 01:30:47;;;;;;;2.78;0.90;;;;;;;20.28;60.33;101616.31;5072626;28;20507;-63
2022/09/05 01:33:26;;;;;;;0.80;0.70;;;;;;;20.22;60.37;101617.91;5068316;28;20056;-63
2022/09/05 01:36:12;;;;;;;1.50;0.95;;;;;;;20.25;60.23;101608.88;5087236;28;20040;-63
2022/09/05 01:39:02;;;;;;;0.82;0.65;;;;;;;20.26;60.38;101615.94;5067231;28;20051;-63
2022/09/05 01:41:57;;;;;;;1.27;1.00;;;;;;;20.25;60.87;101613.56;5070105;28;20032;-63
2022/09/05 01:44:53;;;;;;;1.65;1.10;;;;;;;20.13;61.35;101614.00;5071168;28;20048;-64
2022/09/05 01:47:22;;;;;;;1.63;0.90;;;;;;;20.23;60.66;101615.94;5067249;28;20485;-63
2022/09/05 01:49:50;;;;;;;2.20;0.90;;;;;;;20.07;61.37;101618.31;5071004;28;20041;-64
2022/09/05 01:52:43;;;;;;;1.45;0.80;;;;;;;20.18;60.88;101605.38;5070540;28;20035;-63
2022/09/05 01:55:14;;;;;;;2.00;0.88;;;;;;;20.20;60.69;101605.78;5068135;28;20111;-63
2022/09/05 01:58:14;;;;;;;1.25;1.00;;;;;;;20.18;60.74;101614.41;5070346;28;20039;-63
2022/09/05 02:01:14;;;;;;;3.67;1.02;;;;;;;20.27;60.04;101614.75;5064770;28;20033;-63
2022/09/05 02:03:48;;;;;;;1.35;0.98;;;;;;;20.16;60.19;101605.00;5064506;28;20056;-63
2022/09/05 02:06:42;;;;;;;2.25;1.27;;;;;;;20.14;60.78;101601.88;5071597;28;20047;-63
2022/09/05 02:09:16;;;;;;;1.65;1.10;;;;;;;20.11;61.09;101605.41;5068641;28;20040;-63
2022/09/05 02:11:59;;;;;;;2.58;1.02;;;;;;;20.01;61.25;101595.28;5069600;28;20136;-63
2022/09/05 02:14:49;;;;;;;1.33;1.00;;;;;;;20.00;61.67;101602.69;5070630;28;20513;-63
2022/09/05 02:17:33;;;;;;;1.73;1.08;;;;;;;19.93;61.80;101599.19;5066978;28;20060;-64
2022/09/05 02:20:14;;;;;;;1.88;1.08;;;;;;;19.97;61.81;101602.69;5062423;28;20039;-63
2022/09/05 02:22:43;;;;;;;1.53;1.00;;;;;;;19.97;61.63;101603.50;5086353;28;20032;-63
2022/09/05 02:25:24;;;;;;;2.15;0.98;;;;;;;19.93;60.91;101599.19;5070402;28;20296;-64
2022/09/05 02:28:00;;;;;;;1.80;1.02;;;;;;;19.89;61.65;101599.22;5068886;28;20033;-63
2022/09/05 02:30:32;;;;;;;1.02;0.93;;;;;;;20.01;60.98;101601.53;5071006;28;20028;-63
2022/09/05 02:33:22;;;;;;;1.73;1.08;;;;;;;20.03;60.50;101607.38;5070998;28;20064;-63
2022/09/05 02:35:59;;;;;;;1.63;1.20;;;;;;;20.02;61.03;101605.03;5065667;28;20256;-63
2022/09/05 02:38:43;;;;;;;1.67;1.15;;;;;;;20.12;60.67;101604.22;5070524;28;20427;-63
2022/09/05 02:41:31;;;;;;;2.03;1.17;;;;;;;20.11;60.21;101603.44;5067984;28;20511;-63
2022/09/05 02:44:01;;;;;;;1.30;1.05;;;;;;;20.12;60.00;101602.25;5060975;28;20077;-63
2022/09/05 02:46:35;;;;;;;1.20;1.08;;;;;;;20.16;59.40;101597.56;5069979;28;20070;-63
2022/09/05 02:49:12;;;;;;;1.30;1.10;;;;;;;20.04;59.12;101592.53;5063690;28;20068;-63
2022/09/05 02:51:45;;;;;;;1.98;1.38;;;;;;;20.18;59.37;101597.97;5065549;28;20459;-63
2022/09/05 02:54:32;;;;;;;1.98;1.15;;;;;;;20.22;59.04;101595.22;5059393;28;20423;-63
2022/09/05 02:57:23;;;;;;;1.48;0.95;;;;;;;20.17;59.04;101588.16;5069319;28;20048;-63
2022/09/05 03:00:08;;;;;;;1.95;1.27;;;;;;;20.22;59.30;101587.03;5066911;28;20401;-63
2022/09/05 03:02:52;;;;;;;2.00;1.25;;;;;;;20.13;58.94;101581.16;5070035;28;20032;-63
2022/09/05 03:05:24;;;;;;;1.40;1.00;;;;;;;19.95;59.17;101578.50;5066810;28;20083;-63
2022/09/05 03:08:12;;;;;;;2.83;1.27;;;;;;;20.07;59.14;101580.00;5070046;28;20388;-63
2022/09/05 03:10:53;;;;;;;1.98;1.27;;;;;;;20.07;58.99;101580.81;5060945;28;20114;-63
2022/09/05 03:13:36;;;;;;;2.30;1.25;;;;;;;20.01;59.26;101576.13;5060098;28;20381;-63
2022/09/05 03:16:16;;;;;;;5.35;1.40;;;;;;;19.94;59.19;101582.38;5067822;28;20040;-63
2022/09/05 03:19:21;;;;;;;1.42;1.10;;;;;;;20.12;58.98;101579.59;5069633;28;20671;-62
2022/09/05 03:22:05;;;;;;;2.78;1.20;;;;;;;20.16;58.93;101585.84;5069411;28;20090;-62
2022/09/05 03:24:42;;;;;;;3.58;1.27;;;;;;;20.10;58.82;101581.94;5063587;28;20056;-64
2022/09/05 03:27:10;;;;;;;4.43;1.48;;;;;;;20.11;58.18;101581.53;5069846;28;20032;-64
2022/09/05 03:30:07;;;;;;;2.60;1.10;;;;;;;20.22;58.00;101579.59;5068025;28;20025;-63
2022/09/05 03:33:02;;;;;;;2.50;1.40;;;;;;;20.22;58.34;101576.06;5063958;28;20409;-64
2022/09/05 03:35:46;;;;;;;1.50;0.95;;;;;;;20.25;58.07;101589.72;5068225;28;20040;-63
2022/09/05 03:38:29;;;;;;;1.98;1.15;;;;;;;20.27;58.14;101583.84;5068157;28;20043;-64
2022/09/05 03:41:16;;;;;;;2.45;1.58;;;;;;;20.22;58.14;101579.59;5066779;28;20090;-63
2022/09/05 03:44:00;;;;;;;1.65;1.10;;;;;;;20.20;57.65;101579.22;5066629;28;20059;-63
2022/09/05 03:46:50;;;;;;;3.72;1.60;;;;;;;20.13;58.10;101575.69;5062934;28;20040;-63
2022/09/05 03:49:51;;;;;;;1.95;1.23;;;;;;;20.03;57.98;101579.25;5059288;28;20028;-64
2022/09/05 03:52:42;;;;;;;1.98;1.17;;;;;;;20.01;58.12;101576.91;5066205;28;20040;-63
2022/09/05 03:55:26;;;;;;;1.73;1.27;;;;;;;20.16;57.45;101580.38;5065062;28;20037;-63
2022/09/05 03:57:54;;;;;;;2.08;1.15;;;;;;;20.13;57.22;101576.47;5070076;28;20056;-62
2022/09/05 04:00:32;;;;;;;1.70;1.15;;;;;;;20.07;57.88;101574.53;5070113;28;20028;-63
2022/09/05 04:03:02;;;;;;;2.72;1.77;;;;;;;20.18;57.62;101581.56;5061517;28;20040;-63
2022/09/05 04:05:38;;;;;;;2.78;1.60;;;;;;;20.22;57.35;101581.53;5066059;28;20578;-63
2022/09/05 04:08:32;;;;;;;1.90;1.20;;;;;;;20.26;56.96;101587.78;5061059;28;20108;-63
2022/09/05 04:11:15;;;;;;;2.33;1.35;;;;;;;20.04;56.73;101584.31;5070042;28;20044;-63
2022/09/05 04:13:46;;;;;;;3.38;1.67;;;;;;;20.07;57.10;101585.50;5061779;28;20524;-63
2022/09/05 04:16:27;;;;;;;3.75;2.15;;;;;;;20.06;57.11;101592.13;5065863;28;20428;-63
2022/09/05 04:19:18;;;;;;;1.87;1.33;;;;;;;20.09;57.14;101594.06;5064343;28;20040;-63
2022/09/05 04:21:58;;;;;;;1.23;1.00;;;;;;;20.05;57.13;101587.84;5064227;28;20299;-63
2022/09/05 04:24:32;;;;;;;1.50;1.30;;;;;;;20.15;57.10;101598.72;5066363;28;20051;-63
2022/09/05 04:27:16;;;;;;;4.03;1.38;;;;;;;20.14;56.99;101599.91;5067429;28;20040;-63
2022/09/05 04:29:56;;;;;;;8.90;1.75;;;;;;;20.23;57.01;101602.25;5062320;28;20520;-63
2022/09/05 04:32:37;;;;;;;2.35;1.25;;;;;;;20.21;56.85;101602.66;5061381;28;20046;-63
2022/09/05 04:35:17;;;;;;;2.25;1.40;;;;;;;20.18;56.85;101608.09;5084740;28;20115;-63
2022/09/05 04:37:58;;;;;;;1.92;1.40;;;;;;;20.15;57.15;101606.19;5073698;28;20115;-63
2022/09/05 04:40:40;;;;;;;2.25;1.40;;;;;;;20.07;57.12;101605.41;5071920;28;20033;-63
2022/09/05 04:43:38;;;;;;;4.47;1.67;;;;;;;20.10;57.31;101609.31;5073882;28;20103;-64
2022/09/05 04:46:19;;;;;;;2.95;1.70;;;;;;;20.10;57.40;101606.56;5062937;28;20037;-63
2022/09/05 04:49:20;;;;;;;1.88;1.50;;;;;;;20.01;57.58;101614.41;5063280;28;20033;-63
2022/09/05 04:51:51;;;;;;;1.83;1.27;;;;;;;19.88;58.05;101605.84;5034974;28;20044;-63
2022/09/05 04:54:19;;;;;;;;;;;;;;;19.94;58.06;101608.97;5062757;28;20021;-63
2022/09/05 04:56:50;;;;;;;2.80;1.60;;;;;;;19.86;58.14;101612.91;5070083;28;19921;-63
2022/09/05 04:59:25;;;;;;;1.77;1.48;;;;;;;19.97;58.14;101608.19;5073260;28;20036;-63
2022/09/05 05:01:57;;;;;;;2.53;1.45;;;;;;;20.07;58.56;101621.03;5056752;28;20036;-63
2022/09/05 05:04:25;;;;;;;2.88;1.30;;;;;;;20.14;58.88;101618.28;5067569;28;20036;-64
2022/09/05 05:07:17;;;;;;;5.47;1.58;;;;;;;20.16;60.94;101622.19;5062731;28;20158;-64
2022/09/05 05:09:48;;;;;;;2.60;1.40;;;;;;;20.17;60.02;101625.72;5056393;28;20028;-63
2022/09/05 05:12:23;;;;;;;2.22;1.33;;;;;;;20.22;59.59;101628.06;5067921;28;20477;-64
2022/09/05 05:15:05;;;;;;;2.78;1.92;;;;;;;20.18;58.61;101621.78;5059806;28;20032;-64
2022/09/05 05:17:37;;;;;;;1.67;1.05;;;;;;;20.11;58.45;101630.78;5064664;28;20068;-64
2022/09/05 05:20:24;;;;;;;2.63;1.50;;;;;;;20.19;58.33;101635.09;5056837;28;20086;-64
2022/09/05 05:23:04;;;;;;;2.78;1.60;;;;;;;20.20;58.19;101633.94;5051735;28;20145;-64
2022/09/05 05:25:44;;;;;;;1.80;1.30;;;;;;;20.17;58.20;101631.94;5061381;28;20033;-64
2022/09/05 05:28:13;;;;;;;2.15;1.40;;;;;;;20.18;58.09;101635.47;5072640;28;20046;-64
2022/09/05 05:30:40;;;;;;;3.75;1.48;;;;;;;20.17;58.16;101636.66;5077931;28;20024;-64
2022/09/05 05:33:28;;;;;;;4.15;1.50;;;;;;;20.19;58.24;101637.81;5064405;28;20129;-65
2022/09/05 05:35:59;;;;;;;2.17;1.30;;;;;;;20.21;58.25;101632.75;5060002;28;20063;-65
2022/09/05 05:38:34;;;;;;;2.17;1.30;;;;;;;20.28;58.23;101634.69;5057999;28;20031;-65
2022/09/05 05:41:18;;;;;;;2.53;1.88;;;;;;;20.31;58.33;101639.34;5064270;28;20040;-64
2022/09/05 05:43:46;;;;;;;1.73;1.38;;;;;;;20.37;58.45;101635.03;5062715;28;20083;-64
2022/09/05 05:46:22;;;;;;;2.25;1.30;;;;;;;20.44;58.41;101641.25;5069990;28;20063;-64
2022/09/05 05:48:50;;;;;;;2.67;1.60;;;;;;;20.42;58.28;101640.88;5070233;28;20144;-64
2022/09/05 05:51:27;;;;;;;4.45;1.55;;;;;;;20.48;58.57;101643.97;5070801;28;20032;-63
2022/09/05 05:53:53;;;;;;;1.90;1.23;;;;;;;20.52;57.81;101652.94;5064300;28;20473;-63
2022/09/05 05:56:37;;;;;;;2.65;1.17;;;;;;;20.58;58.50;101649.41;5068988;28;20133;-63
2022/09/05 05:59:27;;;;;;;2.92;1.58;;;;;;;20.48;58.18;101654.91;5071296;28;20512;-64
2022/09/05 06:02:12;;;;;;;2.67;1.50;;;;;;;20.15;59.07;101649.94;5066904;28;20068;-63
2022/09/05 06:04:49;;;;;;;3.22;1.90;;;;;;;20.38;58.83;101653.03;5067046;28;20090;-64
2022/09/05 06:07:36;;;;;;;2.05;1.20;;;;;;;20.42;58.73;101648.31;5071317;28;20074;-64
2022/09/05 06:10:20;;;;;;;2.95;1.33;;;;;;;20.55;58.61;101660.38;5067023;28;20040;-64
2022/09/05 06:13:23;;;;;;;2.03;1.33;;;;;;;20.68;58.49;101658.75;5071150;28;20499;-63
2022/09/05 06:15:51;;;;;;;1.30;1.08;;;;;;;20.79;58.53;101664.94;5065496;28;20118;-63
2022/09/05 06:18:35;;;;;;;2.10;1.48;;;;;;;20.65;57.63;101665.78;5070471;28;20013;-63
2022/09/05 06:21:06;;;;;;;3.30;1.35;;;;;;;20.75;58.78;101672.41;5068263;28;20072;-64
2022/09/05 06:23:40;;;;;;;1.83;1.38;;;;;;;20.92;58.14;101679.78;5067430;28;20082;-63
2022/09/05 06:26:16;;;;;;;5.72;1.70;;;;;;;20.87;57.42;101680.16;5068465;28;20036;-63
2022/09/05 06:28:53;;;;;;;3.80;1.75;;;;;;;21.00;57.18;101677.75;5067601;28;20040;-63
2022/09/05 06:31:43;;;;;;;1.63;1.40;;;;;;;21.11;57.10;101681.25;5067435;28;20055;-64
2022/09/05 06:34:30;;;;;;;2.28;1.15;;;;;;;21.21;57.49;101689.41;5066889;28;20119;-63
2022/09/05 06:37:03;;;;;;;2.47;1.25;;;;;;;21.34;57.19;101685.00;5069315;28;20115;-63
2022/09/05 06:39:58;;;;;;;1.65;1.23;;;;;;;21.41;56.36;101678.69;5066922;28;20036;-63
2022/09/05 06:42:42;;;;;;;3.47;1.48;;;;;;;21.70;55.68;101690.22;5040140;28;20052;-63
2022/09/05 06:45:46;;;;;;;2.55;1.60;;;;;;;21.73;55.73;101689.41;5067572;28;20036;-62
2022/09/05 06:48:19;;;;;;;4.82;1.63;;;;;;;21.74;55.21;101688.22;5070436;28;20473;-63
2022/09/05 06:51:07;;;;;;;2.15;1.10;;;;;;;21.95;55.36;101679.81;5065023;28;20039;-63
2022/09/05 06:53:35;;;;;;;3.08;1.33;;;;;;;21.65;55.56;101687.88;5060494;28;20209;-63
2022/09/05 06:56:30;;;;;;;1.80;1.40;;;;;;;21.86;55.98;101685.00;5070359;28;20036;-63
2022/09/05 06:59:36;;;;;;;2.33;1.27;;;;;;;21.90;55.73;101678.28;5049098;28;20050;-63
2022/09/05 07:02:20;;;;;;;2.42;1.35;;;;;;;22.02;55.24;101687.97;5068708;28;20037;-63
2022/09/05 07:05:30;;;;;;;3.42;1.25;;;;;;;22.19;55.11;101678.78;5059288;28;20028;-62
2022/09/05 07:08:30;;;;;;;1.20;1.00;;;;;;;22.30;54.89;101684.91;5059087;28;20037;-63
2022/09/05 07:11:18;;;;;;;2.30;1.25;;;;;;;22.33;55.08;101690.41;5068213;28;20075;-63
2022/09/05 07:13:55;;;;;;;3.35;1.45;;;;;;;22.53;54.42;101696.03;5066196;28;20388;-63
2022/09/05 07:16:27;;;;;;;1.48;1.23;;;;;;;22.59;54.92;101702.66;5068195;28;20056;-63
2022/09/05 07:19:15;;;;;;;1.85;1.30;;;;;;;22.39;54.69;101702.50;5066216;28;20032;-63
2022/09/05 07:22:05;;;;;;;2.38;1.20;;;;;;;22.36;55.50;101699.75;5066305;28;20108;-62
2022/09/05 07:24:35;;;;;;;2.10;1.27;;;;;;;22.37;55.39;101717.81;5068883;28;20385;-64
2022/09/05 07:27:03;;;;;;;2.33;1.25;;;;;;;22.31;55.43;101697.47;5067709;28;20124;-63
2022/09/05 07:29:34;;;;;;;1.92;1.30;;;;;;;22.11;55.25;101708.25;5064993;28;20028;-63
2022/09/05 07:32:01;;;;;;;2.83;1.38;;;;;;;22.11;55.94;101702.78;5069783;28;20043;-63
2022/09/05 07:34:30;;;;;;;3.72;1.50;;;;;;;22.29;55.99;101706.13;5065511;28;20045;-63
2022/09/05 07:36:59;;;;;;;3.03;1.55;;;;;;;22.35;55.72;101709.19;5070243;28;20048;-63
2022/09/05 07:39:32;;;;;;;2.33;1.20;;;;;;;22.48;55.76;101714.94;5065345;28;20485;-63
2022/09/05 07:42:05;;;;;;;1.38;1.10;;;;;;;22.37;56.24;101720.56;5069867;28;20093;-63
2022/09/05 07:44:37;;;;;;;3.08;1.40;;;;;;;22.29;56.25;101722.59;5067377;28;20533;-63
2022/09/05 07:47:12;;;;;;;2.50;1.20;;;;;;;22.50;55.80;101713.34;5063749;28;20028;-62
2022/09/05 07:49:39;;;;;;;1.63;1.20;;;;;;;22.74;55.96;101717.78;5067599;28;20036;-63
2022/09/05 07:52:26;;;;;;;4.85;1.30;;;;;;;23.00;55.18;101719.78;5068024;28;20031;-62
2022/09/05 07:54:53;;;;;;;2.75;1.33;;;;;;;23.37;54.34;101718.13;5067501;28;20112;-63
2022/09/05 07:57:23;;;;;;;2.30;1.27;;;;;;;23.66;53.74;101703.50;5069267;28;20055;-63
2022/09/05 07:59:56;;;;;;;4.78;2.63;;;;;;;23.94;52.60;101708.50;5069564;28;20405;-62
2022/09/05 08:02:22;;;;;;;2.70;1.20;;;;;;;24.10;52.13;101722.41;5063607;28;20063;-62
2022/09/05 08:04:47;;;;;;;1.65;1.35;;;;;;;24.14;51.65;101728.66;5062409;28;20033;-63
2022/09/05 08:07:21;;;;;;;2.65;1.10;;;;;;;24.63;51.63;101715.91;5055466;28;20043;-62
2022/09/05 08:09:55;;;;;;;1.17;0.98;;;;;;;24.90;50.80;101724.81;5043271;28;20091;-63
2022/09/05 08:12:37;;;;;;;1.58;1.15;;;;;;;25.05;50.38;101715.00;5067054;28;20684;-63
2022/09/05 08:15:08;;;;;;;2.80;1.13;;;;;;;25.04;50.54;101719.00;5066713;28;20111;-63
2022/09/05 08:18:17;;;;;;;1.63;1.13;;;;;;;25.19;50.28;101721.41;5081772;28;20400;-63
2022/09/05 08:21:06;;;;;;;2.30;1.23;;;;;;;25.20;50.03;101723.75;5025599;28;20049;-63
2022/09/05 08:23:50;;;;;;;1.65;1.30;;;;;;;25.26;50.12;101724.03;5082128;28;20460;-62
2022/09/05 08:26:47;;;;;;;2.45;1.17;;;;;;;25.50;49.78;101728.19;5067635;28;20028;-63
2022/09/05 08:29:30;;;;;;;1.50;1.13;;;;;;;25.61;49.71;101728.75;5082237;28;20446;-64
2022/09/05 08:32:07;;;;;;;1.50;1.10;;;;;;;25.76;49.27;101721.66;5071405;28;20107;-63
2022/09/05 08:34:55;;;;;;;2.00;1.30;;;;;;;25.54;49.65;101731.66;5067651;28;20545;-64
2022/09/05 08:37:24;;;;;;;4.13;1.38;;;;;;;25.69;49.54;101727.34;5068967;28;20068;-64
2022/09/05 08:39:53;;;;;;;3.47;1.33;;;;;;;25.61;50.05;101718.44;5061053;28;20028;-63
2022/09/05 08:42:37;;;;;;;2.65;1.42;;;;;;;25.94;49.62;101714.47;5064757;28;20036;-63
2022/09/05 08:45:15;;;;;;;1.25;1.08;;;;;;;26.24;48.68;101720.81;5065541;28;20101;-63
2022/09/05 08:48:07;;;;;;;1.73;1.42;;;;;;;26.39;48.43;101714.47;5083046;28;20415;-63
2022/09/05 08:51:01;;;;;;;1.63;1.23;;;;;;;26.69;48.08;101707.69;5062859;28;20444;-63
2022/09/05 08:54:11;;;;;;;1.55;1.08;;;;;;;26.80;48.17;101705.41;5074156;28;20060;-63
2022/09/05 08:57:03;;;;;;;2.10;1.40;;;;;;;27.02;47.55;101708.31;5086917;28;20544;-62
2022/09/05 08:59:41;;;;;;;1.42;1.30;;;;;;;27.02;47.57;101694.47;5069602;28;20062;-63
2022/09/05 09:02:33;;;;;;;1.42;1.08;;;;;;;27.11;47.46;101702.88;5072324;28;20036;-63
2022/09/05 09:05:20;;;;;;;1.63;1.15;;;;;;;27.21;47.39;101704.53;5062499;28;20041;-64
2022/09/05 09:08:12;;;;;;;1.70;1.02;;;;;;;27.18;47.56;101697.91;5062732;28;20028;-64
2022/09/05 09:10:56;;;;;;;1.55;1.20;;;;;;;27.48;46.70;101696.59;5068046;28;20111;-64
2022/09/05 09:13:51;;;;;;;1.50;1.10;;;;;;;27.53;47.03;101693.25;5072056;28;20051;-64
2022/09/05 09:16:36;;;;;;;3.60;1.45;;;;;;;27.30;47.12;101693.56;5062002;28;20039;-64
2022/09/05 09:19:13;;;;;;;1.75;1.33;;;;;;;27.28;47.16;101693.25;5070953;28;20045;-63
2022/09/05 09:21:46;;;;;;;1.50;1.17;;;;;;;27.45;46.89;101694.69;5068058;28;20131;-63
2022/09/05 09:24:29;;;;;;;1.50;1.08;;;;;;;27.08;48.04;101687.19;5060049;28;20031;-64
2022/09/05 09:27:00;;;;;;;2.50;1.20;;;;;;;27.23;47.93;101697.38;5061283;28;20056;-64
2022/09/05 09:29:27;;;;;;;1.20;1.08;;;;;;;27.47;48.01;101695.03;5060298;28;20040;-65
2022/09/05 09:32:15;;;;;;;1.33;1.20;;;;;;;27.60;47.17;101699.31;5059580;28;20052;-64
2022/09/05 09:34:51;;;;;;;2.25;1.50;;;;;;;27.62;47.54;101696.88;5055593;28;20036;-64
2022/09/05 09:37:28;;;;;;;2.35;1.60;;;;;;;27.61;46.97;101689.03;5057563;28;20029;-65
2022/09/05 09:40:12;;;;;;;2.70;1.55;;;;;;;27.64;47.47;101699.22;5046544;28;20394;-65
2022/09/05 09:43:01;;;;;;;1.85;1.40;;;;;;;27.63;47.15;101675.50;5074887;28;20447;-65
2022/09/05 09:46:04;;;;;;;2.35;1.65;;;;;;;27.50;47.63;101683.84;5062863;28;20032;-64
2022/09/05 09:48:39;;;;;;;3.05;1.58;;;;;;;27.78;47.92;101682.09;5060953;28;20039;-64
2022/09/05 09:51:04;;;;;;;2.13;1.52;;;;;;;27.86;47.09;101682.63;5063050;28;20032;-64
2022/09/05 09:54:04;;;;;;;1.67;1.23;;;;;;;27.94;47.01;101676.44;5057619;28;20028;-64
2022/09/05 09:56:44;;;;;;;2.10;1.40;;;;;;;28.03;45.78;101690.34;5062446;28;21052;-63
2022/09/05 09:59:12;;;;;;;2.15;1.38;;;;;;;28.03;46.84;101682.03;5067096;28;20032;-64
2022/09/05 10:01:53;;;;;;;1.80;1.40;;;;;;;27.73;46.52;101690.22;5069712;28;20025;-64
2022/09/05 10:04:37;;;;;;;4.10;1.30;;;;;;;27.98;46.80;101679.06;5058103;28;20039;-64
2022/09/05 10:07:08;;;;;;;1.83;1.40;;;;;;;28.14;46.44;101670.59;5059846;28;20040;-64
2022/09/05 10:09:59;;;;;;;1.75;1.33;;;;;;;28.38;46.57;101668.91;5052203;28;20082;-64
2022/09/05 10:12:49;;;;;;;2.28;1.52;;;;;;;28.51;46.22;101666.84;5068150;28;20389;-64
2022/09/05 10:15:44;;;;;;;2.33;1.38;;;;;;;28.29;45.99;101668.84;5054676;28;20105;-64
2022/09/05 10:18:38;;;;;;;2.50;1.20;;;;;;;28.20;45.75;101654.94;5058851;28;20032;-63
2022/09/05 10:21:04;;;;;;;1.20;1.10;;;;;;;28.38;45.14;101666.13;5065473;28;20029;-63
2022/09/05 10:23:45;;;;;;;3.28;1.27;;;;;;;28.44;45.07;101665.09;5060399;28;20077;-63
2022/09/05 10:26:23;;;;;;;1.05;0.95;;;;;;;28.36;45.10;101660.25;5061755;28;20044;-64
2022/09/05 10:29:05;;;;;;;2.50;1.13;;;;;;;28.49;44.44;101647.09;5069778;28;20032;-64
2022/09/05 10:31:55;;;;;;;2.03;0.80;;;;;;;28.86;44.41;101656.41;5070135;28;20487;-64
2022/09/05 10:34:28;;;;;;;1.60;1.02;;;;;;;28.60;44.13;101658.59;5063335;28;20042;-64
2022/09/05 10:37:04;;;;;;;4.38;1.10;;;;;;;28.86;44.17;101661.97;5070300;28;20392;-64
2022/09/05 10:39:34;;;;;;;1.20;1.10;;;;;;;29.12;43.59;101654.94;5063759;28;20032;-63
2022/09/05 10:42:24;;;;;;;2.30;1.08;;;;;;;29.15;43.49;101649.28;5070437;28;20028;-63
2022/09/05 10:44:53;;;;;;;1.17;0.70;;;;;;;29.11;42.97;101651.41;5059842;28;20451;-63
2022/09/05 10:47:46;;;;;;;1.10;1.00;;;;;;;29.42;42.99;101651.38;5065480;28;20093;-64
2022/09/05 10:50:32;;;;;;;1.50;1.00;;;;;;;29.64;41.96;101659.56;5066201;28;20033;-64
2022/09/05 10:53:09;;;;;;;1.42;0.90;;;;;;;29.66;41.81;101662.63;5069283;28;20362;-64
2022/09/05 10:55:44;;;;;;;1.30;1.02;;;;;;;28.95;42.49;101650.88;5069918;28;20034;-64
2022/09/05 10:58:12;;;;;;;1.95;1.13;;;;;;;28.81;43.15;101645.88;5069549;28;20500;-64
2022/09/05 11:00:59;;;;;;;1.33;0.95;;;;;;;29.16;42.95;101644.50;5066452;28;20016;-63
2022/09/05 11:03:50;;;;;;;3.72;1.10;;;;;;;29.49;42.77;101651.06;5055545;28;20490;-63
2022/09/05 11:06:24;;;;;;;0.98;0.77;;;;;;;29.55;41.88;101643.66;5064459;28;20043;-64
2022/09/05 11:09:13;;;;;;;1.00;0.80;;;;;;;28.98;42.21;101633.31;5061753;28;20041;-64
2022/09/05 11:11:45;;;;;;;1.20;1.05;;;;;;;28.95;42.90;101634.25;5075774;28;20118;-63
2022/09/05 11:14:49;;;;;;;1.15;0.80;;;;;;;29.28;42.94;101632.50;5063999;28;20401;-64
2022/09/05 11:17:17;;;;;;;0.80;0.80;;;;;;;29.42;42.61;101627.13;5044727;28;20317;-64
2022/09/05 11:19:48;;;;;;;1.45;0.82;;;;;;;29.57;42.68;101637.63;5064670;28;20028;-64
2022/09/05 11:22:14;;;;;;;1.00;0.90;;;;;;;29.83;42.08;101645.25;5062205;28;20051;-64
2022/09/05 11:24:54;;;;;;;1.70;0.95;;;;;;;29.76;41.28;101633.66;5068579;28;20016;-63
2022/09/05 11:27:32;;;;;;;1.15;0.90;;;;;;;29.70;41.92;101638.25;5064602;28;20542;-64
2022/09/05 11:30:12;;;;;;;0.82;0.70;;;;;;;29.63;41.70;101627.47;5054799;28;20082;-64
2022/09/05 11:32:53;;;;;;;1.58;0.85;;;;;;;29.37;41.65;101629.75;5061282;28;20033;-64
2022/09/05 11:35:21;;;;;;;1.48;0.73;;;;;;;29.45;42.49;101619.88;5065334;28;20051;-64
2022/09/05 11:37:49;;;;;;;1.52;1.00;;;;;;;29.00;41.88;101603.09;5058565;28;20045;-64
2022/09/05 11:40:24;;;;;;;1.05;0.80;;;;;;;29.08;42.75;101621.78;5061393;28;20032;-64
2022/09/05 11:43:19;;;;;;;1.02;0.70;;;;;;;29.12;42.19;101619.66;5061799;28;20032;-63
2022/09/05 11:46:13;;;;;;;0.80;0.80;;;;;;;29.57;42.60;101630.09;5051667;28;20025;-63
2022/09/05 11:49:16;;;;;;;1.05;0.70;;;;;;;29.77;41.62;101619.31;5045603;28;20067;-65
2022/09/05 11:52:13;;;;;;;1.20;0.88;;;;;;;29.98;41.20;101612.03;5042417;28;20083;-64
2022/09/05 11:55:00;;;;;;;0.93;0.88;;;;;;;30.33;41.13;101613.25;5059740;28;20602;-64
2022/09/05 11:57:45;;;;;;;1.63;1.00;;;;;;;30.27;40.59;101618.66;5071006;28;20053;-65
2022/09/05 12:00:11;;;;;;;0.52;0.52;;;;;;;30.15;40.18;101618.81;5063639;28;20051;-65
2022/09/05 12:03:13;;;;;;;1.00;0.70;;;;;;;30.25;39.90;101618.31;5063313;28;20044;-64
2022/09/05 12:05:56;;;;;;;1.40;0.70;;;;;;;30.24;40.21;101621.56;5066328;28;20063;-64
2022/09/05 12:08:46;;;;;;;1.10;1.00;;;;;;;29.97;40.22;101614.06;5061551;28;20047;-65
2022/09/05 12:11:39;;;;;;;1.52;1.10;;;;;;;29.61;40.95;101610.47;5067557;28;20151;-64
2022/09/05 12:14:28;;;;;;;0.85;0.73;;;;;;;29.55;40.53;101606.78;5066397;28;20044;-64
2022/09/05 12:17:30;;;;;;;1.10;0.80;;;;;;;29.35;40.88;101605.22;5059735;28;20033;-65
2022/09/05 12:20:10;;;;;;;1.30;0.85;;;;;;;29.30;41.66;101608.63;5063847;28;20052;-64
2022/09/05 12:22:39;;;;;;;1.08;0.98;;;;;;;29.33;41.01;101604.91;5066987;28;20036;-63
2022/09/05 12:25:23;;;;;;;1.38;1.08;;;;;;;29.19;40.84;101602.72;5062910;28;21233;-64
2022/09/05 12:27:53;;;;;;;0.85;0.85;;;;;;;29.19;41.34;101607.53;5063125;28;20025;-64
2022/09/05 12:30:26;;;;;;;1.05;0.82;;;;;;;29.01;41.59;101596.34;5059934;28;20048;-64